Time;durP1;ratioP1;P1;durP2;ratioP2;P2;SDS_P1;SDS_P2;PMS_P1;PMS_P2;Temp;Humidity;BMP_temperature;BMP_pressure;BME280_temperature;BME280_humidity;BME280_pressure;Samples;Min_cycle;Max_cycle;Signal;HPM_P1;HPM_P2
2022/03/16 00:02:20;;;;;;;13.50;6.72;;;;;;;13.07;77.81;101585.72;7379343;19;20014;-76
2022/03/16 00:04:50;;;;;;;10.73;5.55;;;;;;;13.06;77.54;101584.06;7376314;19;20360;-76
2022/03/16 00:07:18;;;;;;;12.80;6.97;;;;;;;13.04;77.94;101583.41;7377761;19;20243;-76
2022/03/16 00:09:46;;;;;;;10.73;6.05;;;;;;;13.04;78.38;101578.09;7378163;19;20010;-77
2022/03/16 00:12:16;;;;;;;11.77;6.63;;;;;;;13.04;77.63;101571.00;7379155;19;20006;-75
2022/03/16 00:14:44;;;;;;;10.82;6.03;;;;;;;13.02;78.33;101580.88;7384219;19;20039;-76
2022/03/16 00:17:13;;;;;;;12.25;6.70;;;;;;;12.99;77.88;101581.19;7378744;19;20447;-76
2022/03/16 00:19:40;;;;;;;14.07;7.90;;;;;;;12.97;78.01;101580.50;7380205;19;20015;-76
2022/03/16 00:22:08;;;;;;;14.00;7.53;;;;;;;12.95;78.32;101579.84;7378404;19;20015;-77
2022/03/16 00:24:35;;;;;;;11.45;6.82;;;;;;;12.92;78.09;101577.47;7380929;19;20014;-76
2022/03/16 00:27:02;;;;;;;17.45;8.88;;;;;;;12.91;78.17;101574.97;7381802;19;20527;-76
2022/03/16 00:29:30;;;;;;;15.90;7.05;;;;;;;12.86;78.42;101575.44;7377725;19;20031;-77
2022/03/16 00:32:02;;;;;;;20.08;10.18;;;;;;;12.83;78.47;101575.75;7379082;19;20605;-75
2022/03/16 00:34:30;;;;;;;17.73;8.93;;;;;;;12.83;79.09;101573.09;7376039;19;20033;-76
2022/03/16 00:36:58;;;;;;;14.45;7.60;;;;;;;12.79;78.60;101572.59;7380459;19;20395;-76
2022/03/16 00:39:26;;;;;;;14.93;7.75;;;;;;;12.76;78.60;101570.22;7376726;19;20011;-76
2022/03/16 00:41:54;;;;;;;15.18;8.60;;;;;;;12.74;79.65;101569.56;7377468;19;20486;-76
2022/03/16 00:44:22;;;;;;;14.98;7.85;;;;;;;12.75;79.14;101567.72;7375393;19;20067;-77
2022/03/16 00:46:49;;;;;;;14.50;8.23;;;;;;;12.74;78.68;101572.19;7379522;19;20007;-75
2022/03/16 00:49:16;;;;;;;26.58;14.55;;;;;;;12.72;79.27;101562.75;7379235;19;20021;-76
2022/03/16 00:51:43;;;;;;;14.43;8.45;;;;;;;12.71;79.38;101567.19;7375963;19;20018;-75
2022/03/16 00:54:11;;;;;;;14.45;8.07;;;;;;;12.68;78.93;101556.94;7373981;19;20446;-75
2022/03/16 00:56:38;;;;;;;13.38;8.65;;;;;;;12.65;79.54;101554.56;7382397;19;20125;-75
2022/03/16 00:59:05;;;;;;;13.98;8.43;;;;;;;12.65;79.86;101557.22;7376385;19;20118;-76
2022/03/16 01:01:32;;;;;;;15.27;8.40;;;;;;;12.66;79.50;101561.53;7381847;19;20014;-76
2022/03/16 01:04:00;;;;;;;19.75;8.93;;;;;;;12.65;79.71;101551.09;7378525;19;20014;-77
2022/03/16 01:06:27;;;;;;;20.25;9.38;;;;;;;12.62;79.96;101552.25;7384623;19;20052;-76
2022/03/16 01:08:55;;;;;;;16.63;9.32;;;;;;;12.60;79.83;101545.44;7388177;19;20007;-76
2022/03/16 01:11:22;;;;;;;18.27;9.25;;;;;;;12.61;79.67;101539.19;7387754;19;20615;-76
2022/03/16 01:13:49;;;;;;;19.02;9.90;;;;;;;12.61;80.89;101547.94;7385483;19;20467;-77
2022/03/16 01:16:18;;;;;;;17.52;9.38;;;;;;;12.59;80.14;101538.53;7383405;19;20498;-76
2022/03/16 01:18:46;;;;;;;18.35;9.40;;;;;;;12.59;80.03;101542.00;7383706;19;20017;-76
2022/03/16 01:21:13;;;;;;;19.77;9.68;;;;;;;12.49;80.22;101541.22;7385301;19;20364;-76
2022/03/16 01:23:41;;;;;;;21.00;10.07;;;;;;;12.48;80.80;101539.56;7383647;19;20019;-76
2022/03/16 01:26:09;;;;;;;17.60;10.23;;;;;;;12.50;80.82;101534.09;7385129;19;20045;-76
2022/03/16 01:28:36;;;;;;;16.90;10.05;;;;;;;12.46;80.78;101541.50;7382653;19;20130;-75
2022/03/16 01:31:03;;;;;;;19.70;10.55;;;;;;;12.42;81.13;101537.50;7385774;19;20433;-76
2022/03/16 01:33:30;;;;;;;19.30;10.68;;;;;;;12.43;81.83;101534.72;7382399;19;20011;-75
2022/03/16 01:35:57;;;;;;;20.17;10.60;;;;;;;12.41;81.68;101534.03;7384822;19;20422;-75
2022/03/16 01:38:25;;;;;;;20.00;10.63;;;;;;;12.42;81.63;101526.94;7384656;19;20015;-74
2022/03/16 01:40:52;;;;;;;34.80;17.77;;;;;;;12.41;81.55;101533.19;7384035;19;20047;-77
2022/03/16 01:43:20;;;;;;;19.30;10.77;;;;;;;12.43;82.40;101518.88;7382002;19;20011;-77
2022/03/16 01:45:49;;;;;;;20.80;11.23;;;;;;;12.44;82.04;101520.50;7383829;19;20577;-76
2022/03/16 01:48:17;;;;;;;20.80;11.27;;;;;;;12.46;81.46;101515.09;7381889;19;20086;-76
2022/03/16 01:50:46;;;;;;;20.85;11.18;;;;;;;12.44;81.65;101512.59;7383927;19;20321;-76
2022/03/16 01:53:14;;;;;;;24.90;12.05;;;;;;;12.44;82.74;101512.59;7381018;19;20475;-76
2022/03/16 01:55:42;;;;;;;22.02;12.15;;;;;;;12.43;82.26;101500.41;7381054;19;20079;-76
2022/03/16 01:58:11;;;;;;;19.05;10.45;;;;;;;12.44;82.18;101501.25;7379363;19;20014;-76
2022/03/16 02:00:39;;;;;;;20.75;11.00;;;;;;;12.44;81.83;101494.13;7378332;19;20015;-75
2022/03/16 02:03:07;;;;;;;19.98;10.77;;;;;;;12.47;82.96;101497.44;7380176;19;20043;-75
2022/03/16 02:05:36;;;;;;;20.23;10.88;;;;;;;12.47;82.12;101494.81;7377307;19;20034;-75
2022/03/16 02:08:05;;;;;;;19.95;11.80;;;;;;;12.49;82.28;101491.06;7378938;19;20531;-76
2022/03/16 02:10:32;;;;;;;26.83;13.50;;;;;;;12.51;82.46;101490.91;7377950;19;20917;-76
2022/03/16 02:13:00;;;;;;;25.77;11.90;;;;;;;12.53;82.06;101481.03;7378349;19;20014;-75
2022/03/16 02:15:27;;;;;;;20.27;11.20;;;;;;;12.55;82.05;101479.06;7377455;19;20085;-76
2022/03/16 02:17:56;;;;;;;22.90;11.57;;;;;;;12.58;81.50;101484.06;7379520;19;20090;-75
2022/03/16 02:20:27;;;;;;;22.58;11.60;;;;;;;12.55;81.74;101485.16;7378104;19;20015;-76
2022/03/16 02:22:54;;;;;;;22.38;11.70;;;;;;;12.57;81.80;101485.03;7376939;19;20135;-76
2022/03/16 02:25:23;;;;;;;27.08;15.05;;;;;;;12.57;82.98;101482.38;7377515;19;20029;-75
2022/03/16 02:27:52;;;;;;;24.15;12.75;;;;;;;12.56;82.55;101483.34;7377501;19;20573;-75
2022/03/16 02:30:21;;;;;;;26.42;14.23;;;;;;;12.58;82.15;101476.13;7381284;19;20087;-76
2022/03/16 02:32:48;;;;;;;23.05;13.27;;;;;;;12.58;83.82;101478.78;7377614;19;20014;-75
2022/03/16 02:35:15;;;;;;;23.73;12.00;;;;;;;12.57;82.50;101472.66;7377427;19;20050;-75
2022/03/16 02:37:43;;;;;;;31.52;15.52;;;;;;;12.55;82.80;101469.31;7375727;19;20011;-76
2022/03/16 02:40:16;;;;;;;25.20;13.00;;;;;;;12.54;82.84;101472.97;7380890;19;20040;-76
2022/03/16 02:42:43;;;;;;;24.42;12.93;;;;;;;12.53;82.48;101466.03;7375389;19;20551;-75
2022/03/16 02:45:10;;;;;;;29.85;13.50;;;;;;;12.53;82.79;101467.84;7375167;19;20602;-77
2022/03/16 02:47:39;;;;;;;24.40;12.20;;;;;;;12.50;82.72;101468.09;7376701;19;20531;-74
2022/03/16 02:50:08;;;;;;;21.52;11.90;;;;;;;12.55;83.46;101460.56;7375446;19;20383;-75
2022/03/16 02:52:35;;;;;;;23.88;12.57;;;;;;;12.51;82.94;101467.97;7373363;19;20045;-75
2022/03/16 02:55:04;;;;;;;28.75;14.02;;;;;;;12.47;83.25;101469.25;7378102;19;20010;-75
2022/03/16 02:57:32;;;;;;;25.88;13.57;;;;;;;12.41;83.53;101462.75;7374888;19;20043;-76
2022/03/16 02:59:59;;;;;;;21.27;12.40;;;;;;;12.38;82.75;101462.22;7378085;19;20007;-76
2022/03/16 03:02:26;;;;;;;23.55;12.95;;;;;;;12.36;83.56;101454.47;7374142;19;20031;-75
2022/03/16 03:04:53;;;;;;;22.77;12.50;;;;;;;12.39;83.45;101462.06;7372907;19;20106;-76
2022/03/16 03:07:21;;;;;;;25.70;12.82;;;;;;;12.34;83.41;101464.31;7377571;19;20015;-75
2022/03/16 03:09:49;;;;;;;22.50;12.55;;;;;;;12.35;83.50;101452.78;7381983;19;20014;-75
2022/03/16 03:12:16;;;;;;;30.38;16.20;;;;;;;12.34;83.40;101453.75;7382420;19;20043;-75
2022/03/16 03:14:44;;;;;;;23.33;12.77;;;;;;;12.35;84.42;101455.44;7379158;19;20467;-75
2022/03/16 03:17:11;;;;;;;23.08;12.75;;;;;;;12.35;83.88;101458.06;7382082;19;20027;-75
2022/03/16 03:19:38;;;;;;;24.15;13.57;;;;;;;12.34;83.45;101450.31;7378100;19;20038;-75
2022/03/16 03:22:05;;;;;;;22.45;12.73;;;;;;;12.34;83.60;101443.22;7377608;19;20027;-77
2022/03/16 03:24:33;;;;;;;23.70;13.13;;;;;;;12.34;83.14;101450.31;7380246;19;20032;-76
2022/03/16 03:27:00;;;;;;;24.65;12.43;;;;;;;12.32;83.28;101445.19;7386073;19;20014;-76
2022/03/16 03:29:27;;;;;;;21.40;11.73;;;;;;;12.31;83.03;101442.69;7379280;19;20039;-76
2022/03/16 03:31:54;;;;;;;20.65;11.00;;;;;;;12.28;82.74;101443.00;7379306;19;20469;-76
2022/03/16 03:34:22;;;;;;;32.33;16.05;;;;;;;12.28;83.36;101440.34;7377308;19;20238;-76
2022/03/16 03:36:49;;;;;;;21.80;11.88;;;;;;;12.30;83.55;101443.66;7376488;19;20018;-75
2022/03/16 03:39:17;;;;;;;22.17;10.90;;;;;;;12.27;83.22;101434.25;7383759;19;20074;-75
2022/03/16 03:41:44;;;;;;;22.13;11.60;;;;;;;12.27;83.41;101441.31;7380406;19;20086;-75
2022/03/16 03:44:11;;;;;;;23.48;11.70;;;;;;;12.25;83.36;101435.34;7379548;19;20021;-77
2022/03/16 03:46:38;;;;;;;19.08;10.75;;;;;;;12.22;83.26;101444.41;7378585;19;20098;-76
2022/03/16 03:49:05;;;;;;;19.90;11.90;;;;;;;12.23;83.51;101446.09;7379956;19;20304;-75
2022/03/16 03:51:33;;;;;;;21.52;11.55;;;;;;;12.24;83.22;101445.06;7378592;19;20018;-75
2022/03/16 03:54:00;;;;;;;19.98;10.50;;;;;;;12.20;83.44;101448.16;7379630;19;20472;-76
2022/03/16 03:56:27;;;;;;;19.15;10.07;;;;;;;12.20;83.23;101449.00;7377413;19;20010;-75
2022/03/16 03:58:54;;;;;;;19.13;10.18;;;;;;;12.21;83.09;101450.66;7380238;19;20017;-76
2022/03/16 04:01:22;;;;;;;26.90;14.18;;;;;;;12.21;83.19;101448.03;7381954;19;20015;-76
2022/03/16 04:03:50;;;;;;;19.02;10.48;;;;;;;12.23;83.41;101451.34;7376507;19;20054;-75
2022/03/16 04:06:17;;;;;;;17.52;9.90;;;;;;;12.23;83.43;101445.25;7374204;19;20002;-75
2022/03/16 04:08:44;;;;;;;17.20;9.80;;;;;;;12.21;83.14;101437.47;7380456;19;20387;-75
2022/03/16 04:11:12;;;;;;;18.52;10.95;;;;;;;12.22;82.74;101435.66;7381906;19;20092;-75
2022/03/16 04:13:39;;;;;;;17.77;9.27;;;;;;;12.20;82.98;101443.72;7379615;19;20007;-76
2022/03/16 04:16:06;;;;;;;18.92;9.75;;;;;;;12.21;83.34;101423.44;7381950;19;20018;-76
2022/03/16 04:18:33;;;;;;;18.73;9.70;;;;;;;12.22;82.75;101425.94;7380558;19;20086;-77
2022/03/16 04:21:00;;;;;;;17.60;8.77;;;;;;;12.21;82.71;101434.00;7378486;19;20014;-76
2022/03/16 04:23:28;;;;;;;17.70;9.93;;;;;;;12.17;82.71;101436.13;7380310;19;20014;-77
2022/03/16 04:25:55;;;;;;;17.70;9.40;;;;;;;12.15;82.81;101432.78;7376251;19;20026;-76
2022/03/16 04:28:22;;;;;;;19.52;10.73;;;;;;;12.14;83.51;101441.66;7381314;19;20336;-75
2022/03/16 04:30:49;;;;;;;18.77;10.43;;;;;;;12.14;82.97;101446.13;7379320;19;20010;-75
2022/03/16 04:33:16;;;;;;;18.45;9.93;;;;;;;12.13;83.21;101436.56;7380706;19;20014;-74
2022/03/16 04:35:44;;;;;;;17.42;10.02;;;;;;;12.13;82.85;101437.41;7376556;19;20133;-75
2022/03/16 04:38:11;;;;;;;18.67;9.57;;;;;;;12.09;83.09;101440.47;7378020;19;20330;-75
2022/03/16 04:40:38;;;;;;;18.17;9.20;;;;;;;12.07;83.47;101435.34;7384101;19;20010;-75
2022/03/16 04:43:06;;;;;;;20.25;9.45;;;;;;;12.09;83.53;101440.47;7386495;19;20011;-76
2022/03/16 04:45:34;;;;;;;17.75;9.65;;;;;;;12.07;83.28;101439.78;7381823;19;20067;-75
2022/03/16 04:48:02;;;;;;;16.15;9.27;;;;;;;12.09;82.91;101435.19;7384988;19;20483;-75
2022/03/16 04:50:35;;;;;;;17.63;10.15;;;;;;;12.07;83.04;101432.69;7385330;19;20336;-77
2022/03/16 04:53:03;;;;;;;16.27;9.45;;;;;;;12.08;83.23;101436.19;7383973;19;20034;-76
2022/03/16 04:55:30;;;;;;;16.25;9.05;;;;;;;12.10;83.00;101432.41;7391175;19;20018;-76
2022/03/16 04:57:57;;;;;;;16.60;9.20;;;;;;;12.10;83.35;101428.91;7385027;19;20047;-75
2022/03/16 05:00:25;;;;;;;18.88;11.10;;;;;;;12.09;83.23;101428.09;7383856;19;20554;-75
2022/03/16 05:02:52;;;;;;;17.20;10.32;;;;;;;12.04;83.58;101427.69;7386781;19;20018;-75
2022/03/16 05:05:20;;;;;;;16.92;9.35;;;;;;;12.08;83.55;101431.72;7382399;19;20034;-76
2022/03/16 05:07:48;;;;;;;16.40;9.63;;;;;;;12.13;82.96;101428.66;7385771;19;20395;-76
2022/03/16 05:10:16;;;;;;;19.58;9.80;;;;;;;12.14;83.00;101425.03;7383415;19;20383;-75
2022/03/16 05:12:45;;;;;;;16.52;8.50;;;;;;;12.15;82.93;101426.66;7384594;19;20010;-76
2022/03/16 05:15:14;;;;;;;23.25;11.48;;;;;;;12.17;83.53;101422.94;7384459;19;20015;-76
2022/03/16 05:17:42;;;;;;;18.15;9.55;;;;;;;12.16;83.00;101418.63;7387648;19;20015;-76
2022/03/16 05:20:11;;;;;;;19.92;10.60;;;;;;;12.15;82.88;101413.47;7381886;19;20038;-75
2022/03/16 05:22:45;;;;;;;20.38;11.30;;;;;;;12.19;83.41;101418.31;7383933;19;20134;-75
2022/03/16 05:25:15;;;;;;;19.48;9.90;;;;;;;12.16;83.05;101418.63;7382917;19;20029;-77
2022/03/16 05:27:42;;;;;;;18.00;11.10;;;;;;;12.19;83.53;101413.03;7385785;19;20464;-76
2022/03/16 05:30:11;;;;;;;17.27;9.90;;;;;;;12.20;83.23;101409.41;7385464;19;20329;-76
2022/03/16 05:32:41;;;;;;;27.05;14.55;;;;;;;12.22;84.33;101404.84;7386724;19;20100;-75
2022/03/16 05:35:10;;;;;;;19.75;11.13;;;;;;;12.24;84.73;101402.88;7381974;19;20443;-75
2022/03/16 05:37:38;;;;;;;35.17;14.80;;;;;;;12.26;85.07;101406.19;7385844;19;20273;-75
2022/03/16 05:40:06;;;;;;;22.48;12.60;;;;;;;12.29;85.51;101405.09;7384809;19;20484;-76
2022/03/16 05:42:34;;;;;;;19.45;10.38;;;;;;;12.30;84.90;101398.81;7383175;19;20119;-75
2022/03/16 05:45:02;;;;;;;36.05;15.27;;;;;;;12.31;85.75;101395.19;7383593;19;20018;-75
2022/03/16 05:47:29;;;;;;;19.88;11.30;;;;;;;12.26;85.59;101393.00;7384455;19;20017;-76
2022/03/16 05:49:57;;;;;;;35.33;14.18;;;;;;;12.30;85.12;101396.16;7384043;19;20135;-75
2022/03/16 05:52:25;;;;;;;20.98;11.52;;;;;;;12.26;85.48;101392.16;7384236;19;20010;-76
2022/03/16 05:54:54;;;;;;;28.15;14.70;;;;;;;12.23;85.28;101395.94;7383616;19;20011;-76
2022/03/16 05:57:26;;;;;;;25.10;12.50;;;;;;;12.25;85.41;101401.88;7384419;19;20011;-76
2022/03/16 05:59:55;;;;;;;21.20;11.13;;;;;;;12.25;85.33;101399.25;7384580;19;20045;-76
2022/03/16 06:02:23;;;;;;;21.55;12.18;;;;;;;12.23;85.05;101405.66;7383931;19;20038;-76
2022/03/16 06:04:50;;;;;;;21.02;11.40;;;;;;;12.21;85.18;101402.34;7383687;19;20010;-75
2022/03/16 06:07:17;;;;;;;20.42;11.23;;;;;;;12.19;85.18;101399.84;7383258;19;20011;-76
2022/03/16 06:09:45;;;;;;;19.42;10.02;;;;;;;12.21;84.76;101392.63;7382395;19;20021;-75
2022/03/16 06:12:12;;;;;;;19.80;11.18;;;;;;;12.22;84.55;101393.44;7387219;19;20118;-75
2022/03/16 06:14:39;;;;;;;19.92;10.82;;;;;;;12.24;84.25;101392.31;7382715;19;20148;-77
2022/03/16 06:17:06;;;;;;;22.40;12.15;;;;;;;12.26;84.17;101400.91;7382790;19;20089;-76
2022/03/16 06:19:34;;;;;;;21.27;11.73;;;;;;;12.28;84.32;101395.50;7384250;19;20007;-76
2022/03/16 06:22:02;;;;;;;19.55;10.45;;;;;;;12.29;84.54;101386.63;7386633;19;20015;-76
2022/03/16 06:24:30;;;;;;;18.88;10.90;;;;;;;12.30;83.80;101391.72;7381657;19;20463;-77
2022/03/16 06:26:59;;;;;;;20.55;10.75;;;;;;;12.30;83.31;101382.97;7384422;19;20524;-75
2022/03/16 06:29:26;;;;;;;17.38;10.00;;;;;;;12.31;83.15;101376.72;7385268;19;20042;-76
2022/03/16 06:31:53;;;;;;;18.75;10.52;;;;;;;12.31;82.96;101389.91;7384743;19;20015;-75
2022/03/16 06:34:20;;;;;;;18.15;10.55;;;;;;;12.28;83.26;101383.13;7383583;19;20018;-76
2022/03/16 06:36:47;;;;;;;20.77;11.82;;;;;;;12.28;83.53;101390.22;7380041;19;20043;-75
2022/03/16 06:39:14;;;;;;;19.15;10.30;;;;;;;12.27;83.72;101392.03;7383407;19;20079;-76
2022/03/16 06:41:43;;;;;;;19.55;10.43;;;;;;;12.29;83.10;101394.53;7384330;19;20025;-75
2022/03/16 06:44:11;;;;;;;19.30;10.82;;;;;;;12.28;83.06;101396.34;7379766;19;20021;-75
2022/03/16 06:46:38;;;;;;;19.95;12.63;;;;;;;12.27;83.35;101389.38;7382576;19;20030;-76
2022/03/16 06:49:05;;;;;;;19.85;11.77;;;;;;;12.32;83.02;101396.84;7380352;19;20129;-75
2022/03/16 06:51:34;;;;;;;20.10;11.48;;;;;;;12.29;83.09;101397.97;7380027;19;20316;-77
2022/03/16 06:54:06;;;;;;;22.15;11.48;;;;;;;12.34;82.75;101406.25;7385288;19;20002;-75
2022/03/16 06:56:34;;;;;;;20.20;10.63;;;;;;;12.32;83.04;101392.41;7384780;19;20474;-76
2022/03/16 06:59:02;;;;;;;21.13;11.48;;;;;;;12.36;82.30;101396.41;7381549;19;20143;-77
2022/03/16 07:01:29;;;;;;;22.35;11.95;;;;;;;12.35;82.89;101391.25;7383243;19;20090;-77
2022/03/16 07:03:56;;;;;;;20.52;11.68;;;;;;;12.34;82.31;101406.25;7380763;19;20023;-76
2022/03/16 07:06:24;;;;;;;22.15;11.65;;;;;;;12.34;82.39;101411.53;7378793;19;20476;-75
2022/03/16 07:08:51;;;;;;;19.85;11.57;;;;;;;12.32;82.83;101417.97;7378212;19;20083;-75
2022/03/16 07:11:18;;;;;;;20.13;11.35;;;;;;;12.31;82.58;101422.41;7380999;19;20103;-74
2022/03/16 07:14:30;;;;;;;21.77;12.68;;;;;;;12.26;83.07;101423.84;7379162;19;20007;-75
2022/03/16 07:16:33;;;;;;;22.38;12.07;;;;;;;12.29;83.27;101428.84;7382345;19;20027;-77
2022/03/16 07:19:02;;;;;;;20.42;11.20;;;;;;;12.32;82.76;101420.59;7380207;19;20423;-76
2022/03/16 07:21:29;;;;;;;23.45;12.05;;;;;;;12.29;82.61;101432.28;7380548;19;20426;-75
2022/03/16 07:23:56;;;;;;;22.73;12.80;;;;;;;12.29;82.35;101427.00;7380555;19;20118;-75
2022/03/16 07:26:23;;;;;;;24.77;13.65;;;;;;;12.28;82.71;101430.63;7382867;19;20011;-76
2022/03/16 07:28:51;;;;;;;21.38;12.43;;;;;;;12.29;83.11;101427.00;7382795;19;20007;-76
2022/03/16 07:31:18;;;;;;;22.60;11.85;;;;;;;12.30;82.34;101431.28;7383304;19;20404;-76
2022/03/16 07:33:45;;;;;;;20.83;11.90;;;;;;;12.30;82.56;101433.09;7379303;19;20037;-76
2022/03/16 07:36:12;;;;;;;21.40;11.75;;;;;;;12.26;82.58;101437.84;7378373;19;20014;-76
2022/03/16 07:38:40;;;;;;;22.58;13.00;;;;;;;12.26;83.30;101434.38;7380090;19;20871;-77
2022/03/16 07:41:07;;;;;;;24.02;12.50;;;;;;;12.28;82.99;101430.63;7384444;19;20023;-77
2022/03/16 07:43:34;;;;;;;21.70;11.68;;;;;;;12.28;82.33;101440.34;7381135;19;20044;-75
2022/03/16 07:46:02;;;;;;;22.13;11.95;;;;;;;12.24;82.68;101433.72;7381513;19;20432;-76
2022/03/16 07:48:28;;;;;;;22.35;12.57;;;;;;;12.27;82.67;101431.59;7380614;19;20019;-75
2022/03/16 07:50:55;;;;;;;22.63;12.75;;;;;;;12.31;82.57;101429.50;7382292;19;20011;-75
2022/03/16 07:53:22;;;;;;;26.08;13.38;;;;;;;12.35;83.17;101431.69;7377050;19;20149;-75
2022/03/16 07:55:55;;;;;;;22.30;11.93;;;;;;;12.37;82.00;101431.53;7378626;19;20484;-77
2022/03/16 07:58:22;;;;;;;20.88;11.23;;;;;;;12.40;82.82;101439.97;7382749;19;20115;-77
2022/03/16 08:00:50;;;;;;;25.10;12.45;;;;;;;12.37;82.50;101435.00;7381491;19;20093;-76
2022/03/16 08:03:17;;;;;;;35.67;19.02;;;;;;;12.41;83.16;101432.91;7386834;19;20011;-77
2022/03/16 08:05:47;;;;;;;27.35;14.35;;;;;;;12.42;83.02;101437.19;7375692;19;20011;-76
2022/03/16 08:08:16;;;;;;;22.48;12.27;;;;;;;12.41;82.52;101420.53;7379560;19;20384;-76
2022/03/16 08:10:44;;;;;;;24.90;13.73;;;;;;;12.44;82.99;101422.06;7378865;19;20090;-76
2022/03/16 08:13:11;;;;;;;18.85;11.40;;;;;;;12.47;82.32;101418.28;7377986;19;20019;-76
2022/03/16 08:15:38;;;;;;;26.50;14.25;;;;;;;12.48;82.56;101415.50;7380717;19;20021;-77
2022/03/16 08:18:06;;;;;;;24.95;12.82;;;;;;;12.50;82.68;101418.78;7377541;19;20256;-77
2022/03/16 08:20:33;;;;;;;26.50;13.70;;;;;;;12.49;82.45;101417.16;7378625;19;20045;-75
2022/03/16 08:23:00;;;;;;;29.08;14.50;;;;;;;12.49;82.80;101416.31;7377651;19;20002;-74
2022/03/16 08:25:48;;;;;;;28.05;14.43;;;;;;;12.49;82.22;101424.25;7378567;19;20010;-76
2022/03/16 08:28:15;;;;;;;40.20;20.65;;;;;;;12.50;82.92;101432.00;7379941;19;20025;-75
2022/03/16 08:30:43;;;;;;;24.15;12.70;;;;;;;12.50;82.41;101436.44;7378894;19;20014;-75
2022/03/16 08:33:10;;;;;;;22.40;11.77;;;;;;;12.46;82.21;101437.72;7382249;19;20415;-78
2022/03/16 08:35:41;;;;;;;21.45;11.85;;;;;;;12.43;82.25;101436.22;7376862;19;20022;-75
2022/03/16 08:38:08;;;;;;;25.60;13.98;;;;;;;12.46;82.25;101435.91;7381610;19;20507;-75
2022/03/16 08:40:36;;;;;;;30.40;13.77;;;;;;;12.50;82.23;101436.44;7382775;19;20043;-75
2022/03/16 08:43:04;;;;;;;21.00;12.02;;;;;;;12.54;82.16;101443.09;7378555;19;20049;-76
2022/03/16 08:45:39;;;;;;;23.23;12.68;;;;;;;12.56;81.85;101443.75;7379213;19;20021;-75
2022/03/16 08:48:07;;;;;;;25.92;12.88;;;;;;;12.58;82.32;101452.38;7377018;19;20013;-76
2022/03/16 08:50:35;;;;;;;23.63;12.75;;;;;;;12.59;82.12;101443.47;7377935;19;20046;-75
2022/03/16 08:53:02;;;;;;;28.42;12.57;;;;;;;12.60;82.34;101434.56;7376957;19;20010;-76
2022/03/16 08:55:29;;;;;;;24.80;12.93;;;;;;;12.60;81.71;101442.47;7378524;19;20018;-75
2022/03/16 08:57:57;;;;;;;22.85;12.38;;;;;;;12.60;81.76;101442.47;7376819;19;20014;-75
2022/03/16 09:00:24;;;;;;;24.65;14.73;;;;;;;12.62;83.96;101446.63;7377608;19;20014;-76
2022/03/16 09:02:52;;;;;;;26.92;15.63;;;;;;;12.66;84.61;101449.78;7379953;19;20023;-76
2022/03/16 09:05:20;;;;;;;25.40;13.88;;;;;;;12.66;83.87;101441.88;7376173;19;20010;-75
2022/03/16 09:07:47;;;;;;;36.72;19.55;;;;;;;12.67;83.45;101441.72;7375041;19;20015;-76
2022/03/16 09:10:14;;;;;;;25.00;14.35;;;;;;;12.68;83.12;101442.56;7377013;19;20029;-75
2022/03/16 09:12:42;;;;;;;23.08;12.70;;;;;;;12.65;82.94;101427.00;7380349;19;20011;-76
2022/03/16 09:15:09;;;;;;;31.25;15.88;;;;;;;12.67;83.18;101435.63;7376415;19;20018;-76
2022/03/16 09:17:37;;;;;;;27.60;14.82;;;;;;;12.70;83.13;101435.31;7377165;19;20014;-75
2022/03/16 09:20:05;;;;;;;25.02;13.02;;;;;;;12.69;82.47;101425.75;7377285;19;20006;-76
2022/03/16 09:22:34;;;;;;;28.30;15.93;;;;;;;12.68;83.05;101418.81;7378843;19;20062;-76
2022/03/16 09:25:06;;;;;;;31.77;16.25;;;;;;;12.74;82.64;101421.69;7380529;19;20364;-77
2022/03/16 09:27:35;;;;;;;25.13;13.80;;;;;;;12.74;83.38;101410.28;7383786;19;20021;-77
2022/03/16 09:30:04;;;;;;;25.17;13.13;;;;;;;12.75;82.83;101425.13;7389522;19;20015;-77
2022/03/16 09:32:33;;;;;;;34.05;17.85;;;;;;;12.75;83.07;101417.19;7384692;19;20006;-77
2022/03/16 09:35:01;;;;;;;30.30;15.82;;;;;;;12.76;83.35;101411.78;7387295;19;20491;-77
2022/03/16 09:37:28;;;;;;;25.77;13.55;;;;;;;12.80;83.18;101418.41;7382321;19;20010;-75
2022/03/16 09:39:56;;;;;;;30.10;13.95;;;;;;;12.80;82.97;101404.38;7388396;19;20017;-75
2022/03/16 09:42:25;;;;;;;23.80;13.02;;;;;;;12.86;82.55;101412.50;7385419;19;20317;-77
2022/03/16 09:44:53;;;;;;;22.80;12.13;;;;;;;12.88;82.10;101417.66;7385681;19;20025;-76
2022/03/16 09:47:22;;;;;;;29.05;15.98;;;;;;;12.92;82.36;101412.88;7383220;19;20023;-77
2022/03/16 09:49:51;;;;;;;30.52;14.98;;;;;;;12.95;83.14;101408.16;7384464;19;20021;-76
2022/03/16 09:52:20;;;;;;;27.35;14.95;;;;;;;12.96;83.06;101415.06;7382021;19;20013;-76
2022/03/16 09:54:47;;;;;;;28.35;13.50;;;;;;;12.96;82.83;101420.34;7381880;19;20010;-77
2022/03/16 09:57:14;;;;;;;26.15;13.50;;;;;;;12.98;82.50;101418.41;7382703;19;20126;-76
2022/03/16 09:59:43;;;;;;;24.08;12.70;;;;;;;12.92;82.48;101416.34;7382081;19;20440;-76
2022/03/16 10:02:15;;;;;;;61.83;25.48;;;;;;;12.97;84.08;101414.09;7385532;19;20049;-77
2022/03/16 10:04:45;;;;;;;36.17;20.20;;;;;;;13.03;84.58;101420.56;7382043;19;20332;-77
2022/03/16 10:07:13;;;;;;;22.75;12.95;;;;;;;13.05;85.41;101415.97;7383243;19;20041;-76
2022/03/16 10:15:13;;;;;;;25.85;13.73;;;;;;;13.06;84.33;101413.16;7384001;19;20411;-76
2022/03/16 10:17:43;;;;;;;25.15;13.48;;;;;;;13.05;84.26;101408.03;7382914;19;20010;-75
2022/03/16 10:20:19;;;;;;;24.10;13.38;;;;;;;13.05;84.26;101406.25;7383449;19;20090;-77
2022/03/16 10:22:55;;;;;;;36.83;17.88;;;;;;;13.05;84.45;101402.75;7382270;19;20077;-76
2022/03/16 10:25:22;;;;;;;26.63;14.32;;;;;;;13.01;84.61;101399.56;7381536;19;20245;-76
2022/03/16 10:27:50;;;;;;;29.70;15.63;;;;;;;12.97;84.98;101394.75;7380871;19;20007;-76
2022/03/16 10:30:20;;;;;;;22.17;12.68;;;;;;;12.96;84.62;101380.72;7380007;19;20133;-76
2022/03/16 10:32:53;;;;;;;33.60;19.13;;;;;;;12.96;85.12;101379.88;7382317;19;20019;-77
2022/03/16 10:35:23;;;;;;;32.25;15.02;;;;;;;12.95;85.45;101384.38;7379208;19;20452;-76
2022/03/16 10:37:50;;;;;;;26.98;13.00;;;;;;;12.97;85.62;101368.34;7377765;19;20017;-77
2022/03/16 10:40:19;;;;;;;22.83;12.80;;;;;;;12.94;85.61;101360.75;7384294;19;20038;-75
2022/03/16 10:48:02;;;;;;;28.13;13.88;;;;;;;12.91;85.73;101342.53;7381845;19;20078;-75
2022/03/16 10:50:39;;;;;;;24.63;11.70;;;;;;;12.94;86.24;101335.16;7382084;19;20022;-77
2022/03/16 10:53:09;;;;;;;40.35;21.58;;;;;;;12.95;86.27;101328.91;7379282;19;20027;-78
2022/03/16 10:55:38;;;;;;;26.75;12.80;;;;;;;13.01;85.77;101324.78;7382738;19;20025;-76
2022/03/16 10:58:08;;;;;;;27.60;12.38;;;;;;;13.02;86.56;101319.34;7381982;19;20095;-77
2022/03/16 11:00:36;;;;;;;27.77;12.93;;;;;;;13.02;86.43;101316.72;7382421;19;20010;-77
2022/03/16 11:03:12;;;;;;;25.83;12.38;;;;;;;13.08;85.70;101316.09;7381298;19;20509;-75
2022/03/16 11:05:42;;;;;;;28.83;15.35;;;;;;;13.14;85.90;101317.31;7376472;19;20014;-76
2022/03/16 11:08:10;;;;;;;31.13;13.95;;;;;;;13.13;85.08;101318.28;7379657;19;20722;-75
2022/03/16 11:10:39;;;;;;;31.83;13.75;;;;;;;13.07;84.74;101313.59;7385307;19;20337;-76
2022/03/16 11:15:57;;;;;;;32.53;14.27;;;;;;;13.10;85.12;101306.19;7380997;19;20942;-77
2022/03/16 11:18:26;;;;;;;30.67;15.55;;;;;;;13.13;85.11;101302.44;7379524;19;20015;-76
2022/03/16 11:20:56;;;;;;;28.95;15.73;;;;;;;13.15;85.20;101288.09;7380355;19;20660;-78
2022/03/16 11:26:25;;;;;;;25.17;12.95;;;;;;;13.17;85.07;101295.84;7381980;19;20010;-76
2022/03/16 11:29:21;;;;;;;26.33;13.30;;;;;;;13.19;84.90;101285.94;7383440;19;20026;-77
2022/03/16 11:31:49;;;;;;;41.92;20.15;;;;;;;13.21;84.38;101278.69;7377462;19;20031;-76
2022/03/16 11:34:23;;;;;;;24.90;12.50;;;;;;;13.23;84.48;101260.88;7377775;19;20025;-76